sensor_id;sensor_type;location;lat;lon;timestamp;P1;durP1;ratioP1;P2;durP2;ratioP2
38252;SDS011;24785;52.372;20.672;2023-07-31T00:07:31;3.65;;;2.42;;
38252;SDS011;24785;52.372;20.672;2023-07-31T00:17:32;4.70;;;3.03;;
38252;SDS011;24785;52.372;20.672;2023-07-31T00:27:33;3.88;;;2.38;;
38252;SDS011;24785;52.372;20.672;2023-07-31T00:37:34;4.93;;;2.53;;
38252;SDS011;24785;52.372;20.672;2023-07-31T00:47:35;5.95;;;2.47;;
38252;SDS011;24785;52.372;20.672;2023-07-31T00:57:36;3.95;;;2.30;;
38252;SDS011;24785;52.372;20.672;2023-07-31T01:18:06;6.35;;;2.80;;
38252;SDS011;24785;52.372;20.672;2023-07-31T01:28:19;5.38;;;2.58;;
38252;SDS011;24785;52.372;20.672;2023-07-31T01:38:24;4.50;;;2.53;;
38252;SDS011;24785;52.372;20.672;2023-07-31T01:48:24;6.75;;;3.00;;
38252;SDS011;24785;52.372;20.672;2023-07-31T01:58:25;4.68;;;2.85;;
38252;SDS011;24785;52.372;20.672;2023-07-31T02:08:26;5.70;;;3.10;;
38252;SDS011;24785;52.372;20.672;2023-07-31T02:18:27;4.78;;;2.92;;
38252;SDS011;24785;52.372;20.672;2023-07-31T02:28:28;5.20;;;2.90;;
38252;SDS011;24785;52.372;20.672;2023-07-31T02:38:29;5.00;;;2.83;;
38252;SDS011;24785;52.372;20.672;2023-07-31T02:48:30;4.57;;;3.00;;
38252;SDS011;24785;52.372;20.672;2023-07-31T02:58:31;5.65;;;3.28;;
38252;SDS011;24785;52.372;20.672;2023-07-31T03:08:32;8.30;;;3.33;;
38252;SDS011;24785;52.372;20.672;2023-07-31T03:18:33;5.38;;;3.05;;
38252;SDS011;24785;52.372;20.672;2023-07-31T03:28:34;9.13;;;3.85;;
38252;SDS011;24785;52.372;20.672;2023-07-31T03:38:35;5.65;;;2.85;;
38252;SDS011;24785;52.372;20.672;2023-07-31T03:48:35;6.35;;;2.47;;
38252;SDS011;24785;52.372;20.672;2023-07-31T03:58:36;5.97;;;2.65;;
38252;SDS011;24785;52.372;20.672;2023-07-31T04:08:37;4.13;;;2.35;;
38252;SDS011;24785;52.372;20.672;2023-07-31T04:18:38;5.30;;;2.40;;
38252;SDS011;24785;52.372;20.672;2023-07-31T04:28:39;9.15;;;2.80;;
38252;SDS011;24785;52.372;20.672;2023-07-31T04:38:40;4.32;;;2.33;;
38252;SDS011;24785;52.372;20.672;2023-07-31T04:48:41;5.13;;;2.30;;
38252;SDS011;24785;52.372;20.672;2023-07-31T04:58:43;4.50;;;2.00;;
38252;SDS011;24785;52.372;20.672;2023-07-31T05:08:44;6.35;;;2.53;;
38252;SDS011;24785;52.372;20.672;2023-07-31T05:18:44;7.07;;;2.38;;
38252;SDS011;24785;52.372;20.672;2023-07-31T05:28:45;5.13;;;2.22;;
38252;SDS011;24785;52.372;20.672;2023-07-31T05:38:46;4.03;;;2.10;;
38252;SDS011;24785;52.372;20.672;2023-07-31T05:48:47;4.50;;;2.30;;
38252;SDS011;24785;52.372;20.672;2023-07-31T05:58:48;5.85;;;2.35;;
38252;SDS011;24785;52.372;20.672;2023-07-31T06:08:50;4.43;;;2.25;;
38252;SDS011;24785;52.372;20.672;2023-07-31T06:18:51;5.00;;;2.35;;
38252;SDS011;24785;52.372;20.672;2023-07-31T06:28:52;4.95;;;2.33;;
38252;SDS011;24785;52.372;20.672;2023-07-31T06:38:53;5.68;;;2.33;;
38252;SDS011;24785;52.372;20.672;2023-07-31T06:48:53;7.30;;;2.50;;
38252;SDS011;24785;52.372;20.672;2023-07-31T06:58:55;4.63;;;2.57;;
38252;SDS011;24785;52.372;20.672;2023-07-31T07:08:56;5.68;;;2.08;;
38252;SDS011;24785;52.372;20.672;2023-07-31T07:18:57;7.07;;;2.53;;
38252;SDS011;24785;52.372;20.672;2023-07-31T07:28:58;3.55;;;1.92;;
38252;SDS011;24785;52.372;20.672;2023-07-31T07:39:01;7.55;;;2.10;;
38252;SDS011;24785;52.372;20.672;2023-07-31T07:49:02;6.65;;;2.50;;
38252;SDS011;24785;52.372;20.672;2023-07-31T07:59:03;6.15;;;2.20;;
38252;SDS011;24785;52.372;20.672;2023-07-31T08:09:04;7.63;;;2.20;;
38252;SDS011;24785;52.372;20.672;2023-07-31T08:19:06;7.35;;;2.10;;
38252;SDS011;24785;52.372;20.672;2023-07-31T08:29:07;4.97;;;1.70;;
38252;SDS011;24785;52.372;20.672;2023-07-31T08:39:08;6.17;;;1.90;;
38252;SDS011;24785;52.372;20.672;2023-07-31T08:49:09;4.40;;;1.57;;
38252;SDS011;24785;52.372;20.672;2023-07-31T09:09:14;5.00;;;1.60;;
38252;SDS011;24785;52.372;20.672;2023-07-31T09:29:25;6.55;;;1.40;;
38252;SDS011;24785;52.372;20.672;2023-07-31T09:39:27;5.57;;;2.65;;
38252;SDS011;24785;52.372;20.672;2023-07-31T09:49:30;5.40;;;1.35;;
38252;SDS011;24785;52.372;20.672;2023-07-31T09:59:34;1.73;;;1.00;;
38252;SDS011;24785;52.372;20.672;2023-07-31T10:09:36;2.22;;;1.15;;
38252;SDS011;24785;52.372;20.672;2023-07-31T10:19:37;2.88;;;1.17;;
38252;SDS011;24785;52.372;20.672;2023-07-31T10:39:40;5.50;;;1.00;;
38252;SDS011;24785;52.372;20.672;2023-07-31T10:49:43;3.80;;;1.20;;
38252;SDS011;24785;52.372;20.672;2023-07-31T10:59:45;2.80;;;1.20;;
38252;SDS011;24785;52.372;20.672;2023-07-31T11:09:46;2.77;;;1.00;;
38252;SDS011;24785;52.372;20.672;2023-07-31T11:19:50;2.72;;;1.00;;
38252;SDS011;24785;52.372;20.672;2023-07-31T11:29:51;6.57;;;1.33;;
38252;SDS011;24785;52.372;20.672;2023-07-31T11:40:01;4.63;;;1.37;;
38252;SDS011;24785;52.372;20.672;2023-07-31T11:50:02;2.40;;;0.90;;
38252;SDS011;24785;52.372;20.672;2023-07-31T12:00:04;1.98;;;0.90;;
38252;SDS011;24785;52.372;20.672;2023-07-31T12:10:07;3.75;;;1.10;;
38252;SDS011;24785;52.372;20.672;2023-07-31T12:20:09;3.80;;;1.20;;
38252;SDS011;24785;52.372;20.672;2023-07-31T12:40:30;5.93;;;1.35;;
38252;SDS011;24785;52.372;20.672;2023-07-31T12:50:31;4.67;;;1.30;;
38252;SDS011;24785;52.372;20.672;2023-07-31T13:00:32;3.87;;;1.60;;
38252;SDS011;24785;52.372;20.672;2023-07-31T13:10:33;5.40;;;1.40;;
38252;SDS011;24785;52.372;20.672;2023-07-31T13:20:35;3.47;;;1.20;;
38252;SDS011;24785;52.372;20.672;2023-07-31T13:30:35;4.70;;;1.30;;
38252;SDS011;24785;52.372;20.672;2023-07-31T13:40:36;3.27;;;1.30;;
38252;SDS011;24785;52.372;20.672;2023-07-31T13:50:37;3.03;;;1.27;;
38252;SDS011;24785;52.372;20.672;2023-07-31T14:00:38;4.67;;;1.57;;
38252;SDS011;24785;52.372;20.672;2023-07-31T14:10:39;4.23;;;1.30;;
38252;SDS011;24785;52.372;20.672;2023-07-31T14:20:40;5.37;;;1.53;;
38252;SDS011;24785;52.372;20.672;2023-07-31T14:30:41;4.07;;;1.20;;
38252;SDS011;24785;52.372;20.672;2023-07-31T14:40:42;9.33;;;1.47;;
38252;SDS011;24785;52.372;20.672;2023-07-31T14:50:43;4.27;;;1.50;;
38252;SDS011;24785;52.372;20.672;2023-07-31T15:00:44;3.40;;;1.40;;
38252;SDS011;24785;52.372;20.672;2023-07-31T15:10:45;4.90;;;1.40;;
38252;SDS011;24785;52.372;20.672;2023-07-31T15:20:46;4.13;;;1.63;;
38252;SDS011;24785;52.372;20.672;2023-07-31T15:30:47;4.60;;;1.30;;
38252;SDS011;24785;52.372;20.672;2023-07-31T15:40:48;4.93;;;1.45;;
38252;SDS011;24785;52.372;20.672;2023-07-31T15:50:49;5.83;;;1.50;;
38252;SDS011;24785;52.372;20.672;2023-07-31T16:00:50;6.63;;;1.70;;
38252;SDS011;24785;52.372;20.672;2023-07-31T16:10:51;5.07;;;1.50;;
38252;SDS011;24785;52.372;20.672;2023-07-31T16:20:53;7.93;;;1.80;;
38252;SDS011;24785;52.372;20.672;2023-07-31T16:30:55;5.75;;;1.90;;
38252;SDS011;24785;52.372;20.672;2023-07-31T16:40:56;3.97;;;1.70;;
38252;SDS011;24785;52.372;20.672;2023-07-31T16:50:57;5.10;;;2.00;;
38252;SDS011;24785;52.372;20.672;2023-07-31T17:00:58;7.28;;;2.05;;
38252;SDS011;24785;52.372;20.672;2023-07-31T17:11:01;4.50;;;1.70;;
38252;SDS011;24785;52.372;20.672;2023-07-31T17:21:01;5.32;;;1.83;;
38252;SDS011;24785;52.372;20.672;2023-07-31T17:31:02;4.35;;;1.75;;
38252;SDS011;24785;52.372;20.672;2023-07-31T17:41:03;5.57;;;1.75;;
38252;SDS011;24785;52.372;20.672;2023-07-31T17:51:04;3.95;;;1.40;;
38252;SDS011;24785;52.372;20.672;2023-07-31T18:01:05;7.10;;;1.75;;
38252;SDS011;24785;52.372;20.672;2023-07-31T18:11:06;6.32;;;1.60;;
38252;SDS011;24785;52.372;20.672;2023-07-31T18:21:07;6.00;;;3.03;;
38252;SDS011;24785;52.372;20.672;2023-07-31T18:31:08;5.60;;;2.00;;
38252;SDS011;24785;52.372;20.672;2023-07-31T18:41:09;4.90;;;1.92;;
38252;SDS011;24785;52.372;20.672;2023-07-31T18:51:11;4.82;;;1.67;;
38252;SDS011;24785;52.372;20.672;2023-07-31T19:01:12;4.45;;;2.20;;
38252;SDS011;24785;52.372;20.672;2023-07-31T19:11:13;3.40;;;2.05;;
38252;SDS011;24785;52.372;20.672;2023-07-31T19:21:14;8.05;;;2.15;;
38252;SDS011;24785;52.372;20.672;2023-07-31T19:31:15;4.82;;;2.05;;
38252;SDS011;24785;52.372;20.672;2023-07-31T19:41:16;5.28;;;2.03;;
38252;SDS011;24785;52.372;20.672;2023-07-31T20:01:19;4.45;;;2.08;;
38252;SDS011;24785;52.372;20.672;2023-07-31T20:11:20;5.60;;;2.58;;
38252;SDS011;24785;52.372;20.672;2023-07-31T20:21:20;8.68;;;2.78;;
38252;SDS011;24785;52.372;20.672;2023-07-31T20:31:21;6.95;;;2.60;;
38252;SDS011;24785;52.372;20.672;2023-07-31T20:41:24;7.35;;;2.00;;
38252;SDS011;24785;52.372;20.672;2023-07-31T20:51:25;7.60;;;2.28;;
38252;SDS011;24785;52.372;20.672;2023-07-31T21:01:25;7.03;;;2.85;;
38252;SDS011;24785;52.372;20.672;2023-07-31T21:11:27;5.80;;;2.63;;
38252;SDS011;24785;52.372;20.672;2023-07-31T21:21:28;4.40;;;2.40;;
38252;SDS011;24785;52.372;20.672;2023-07-31T21:31:29;7.95;;;2.78;;
38252;SDS011;24785;52.372;20.672;2023-07-31T21:41:30;6.35;;;2.88;;
38252;SDS011;24785;52.372;20.672;2023-07-31T21:51:31;6.32;;;2.80;;
38252;SDS011;24785;52.372;20.672;2023-07-31T22:01:32;4.40;;;2.72;;
38252;SDS011;24785;52.372;20.672;2023-07-31T22:11:33;7.25;;;3.17;;
38252;SDS011;24785;52.372;20.672;2023-07-31T22:21:34;7.35;;;3.20;;
38252;SDS011;24785;52.372;20.672;2023-07-31T22:31:34;8.57;;;3.20;;
38252;SDS011;24785;52.372;20.672;2023-07-31T22:41:35;8.38;;;3.17;;
38252;SDS011;24785;52.372;20.672;2023-07-31T22:51:36;10.05;;;3.70;;
38252;SDS011;24785;52.372;20.672;2023-07-31T23:01:37;8.57;;;3.05;;
38252;SDS011;24785;52.372;20.672;2023-07-31T23:11:39;9.60;;;3.40;;
38252;SDS011;24785;52.372;20.672;2023-07-31T23:21:40;10.13;;;3.67;;
38252;SDS011;24785;52.372;20.672;2023-07-31T23:31:41;6.90;;;3.13;;
38252;SDS011;24785;52.372;20.672;2023-07-31T23:41:42;5.60;;;3.20;;
38252;SDS011;24785;52.372;20.672;2023-07-31T23:51:44;5.90;;;2.72;;
